sensor_id;sensor_type;location;lat;lon;timestamp;P1;durP1;ratioP1;P2;durP2;ratioP2
67508;SDS011;54354;44.724;11.284;2024-01-15T00:00:39;368.90;;;112.35;;
67508;SDS011;54354;44.724;11.284;2024-01-15T00:03:05;339.90;;;113.45;;
67508;SDS011;54354;44.724;11.284;2024-01-15T00:05:31;402.15;;;116.90;;
67508;SDS011;54354;44.724;11.284;2024-01-15T00:07:56;374.08;;;115.50;;
67508;SDS011;54354;44.724;11.284;2024-01-15T00:10:22;411.45;;;115.55;;
67508;SDS011;54354;44.724;11.284;2024-01-15T00:12:48;386.30;;;114.88;;
67508;SDS011;54354;44.724;11.284;2024-01-15T00:15:14;313.63;;;110.72;;
67508;SDS011;54354;44.724;11.284;2024-01-15T00:17:40;251.60;;;113.57;;
67508;SDS011;54354;44.724;11.284;2024-01-15T00:20:06;459.42;;;117.78;;
67508;SDS011;54354;44.724;11.284;2024-01-15T00:22:32;324.98;;;116.78;;
67508;SDS011;54354;44.724;11.284;2024-01-15T00:24:57;298.13;;;113.72;;
67508;SDS011;54354;44.724;11.284;2024-01-15T00:27:23;271.15;;;111.93;;
67508;SDS011;54354;44.724;11.284;2024-01-15T00:29:49;393.75;;;109.30;;
67508;SDS011;54354;44.724;11.284;2024-01-15T00:32:15;388.05;;;102.32;;
67508;SDS011;54354;44.724;11.284;2024-01-15T00:34:41;402.38;;;103.90;;
67508;SDS011;54354;44.724;11.284;2024-01-15T00:37:07;414.05;;;101.20;;
67508;SDS011;54354;44.724;11.284;2024-01-15T00:39:33;361.92;;;102.57;;
67508;SDS011;54354;44.724;11.284;2024-01-15T00:41:58;348.85;;;103.45;;
67508;SDS011;54354;44.724;11.284;2024-01-15T00:44:24;311.20;;;102.68;;
67508;SDS011;54354;44.724;11.284;2024-01-15T00:46:49;335.70;;;105.78;;
67508;SDS011;54354;44.724;11.284;2024-01-15T00:49:15;338.02;;;101.90;;
67508;SDS011;54354;44.724;11.284;2024-01-15T00:51:41;337.30;;;105.53;;
67508;SDS011;54354;44.724;11.284;2024-01-15T00:54:07;325.27;;;98.57;;
67508;SDS011;54354;44.724;11.284;2024-01-15T00:56:32;388.40;;;93.63;;
67508;SDS011;54354;44.724;11.284;2024-01-15T00:58:58;290.80;;;96.05;;
67508;SDS011;54354;44.724;11.284;2024-01-15T01:01:24;408.92;;;100.30;;
67508;SDS011;54354;44.724;11.284;2024-01-15T01:03:49;302.08;;;93.95;;
67508;SDS011;54354;44.724;11.284;2024-01-15T01:06:15;334.48;;;91.85;;
67508;SDS011;54354;44.724;11.284;2024-01-15T01:08:40;341.50;;;92.75;;
67508;SDS011;54354;44.724;11.284;2024-01-15T01:11:06;277.02;;;90.32;;
67508;SDS011;54354;44.724;11.284;2024-01-15T01:13:32;296.48;;;89.63;;
67508;SDS011;54354;44.724;11.284;2024-01-15T01:15:58;370.73;;;94.20;;
67508;SDS011;54354;44.724;11.284;2024-01-15T01:18:23;359.98;;;93.00;;
67508;SDS011;54354;44.724;11.284;2024-01-15T01:20:49;228.10;;;87.15;;
67508;SDS011;54354;44.724;11.284;2024-01-15T01:23:14;204.88;;;85.53;;
67508;SDS011;54354;44.724;11.284;2024-01-15T01:25:40;264.60;;;85.28;;
67508;SDS011;54354;44.724;11.284;2024-01-15T01:28:06;248.50;;;85.78;;
67508;SDS011;54354;44.724;11.284;2024-01-15T01:30:31;280.52;;;85.95;;
67508;SDS011;54354;44.724;11.284;2024-01-15T01:32:57;186.25;;;85.88;;
67508;SDS011;54354;44.724;11.284;2024-01-15T01:35:22;263.55;;;86.88;;
67508;SDS011;54354;44.724;11.284;2024-01-15T01:37:48;234.30;;;82.93;;
67508;SDS011;54354;44.724;11.284;2024-01-15T01:40:13;246.65;;;86.05;;
67508;SDS011;54354;44.724;11.284;2024-01-15T01:42:39;186.65;;;83.85;;
67508;SDS011;54354;44.724;11.284;2024-01-15T01:45:04;220.25;;;85.32;;
67508;SDS011;54354;44.724;11.284;2024-01-15T01:47:30;206.30;;;85.22;;
67508;SDS011;54354;44.724;11.284;2024-01-15T01:49:57;213.90;;;82.28;;
67508;SDS011;54354;44.724;11.284;2024-01-15T01:52:22;188.93;;;82.40;;
67508;SDS011;54354;44.724;11.284;2024-01-15T01:54:49;206.80;;;83.10;;
67508;SDS011;54354;44.724;11.284;2024-01-15T01:57:16;197.48;;;82.55;;
67508;SDS011;54354;44.724;11.284;2024-01-15T01:59:42;201.43;;;82.25;;
67508;SDS011;54354;44.724;11.284;2024-01-15T02:02:08;233.68;;;89.30;;
67508;SDS011;54354;44.724;11.284;2024-01-15T02:04:34;234.50;;;93.80;;
67508;SDS011;54354;44.724;11.284;2024-01-15T02:07:01;185.75;;;85.00;;
67508;SDS011;54354;44.724;11.284;2024-01-15T02:09:27;172.30;;;83.78;;
67508;SDS011;54354;44.724;11.284;2024-01-15T02:11:53;200.65;;;83.95;;
67508;SDS011;54354;44.724;11.284;2024-01-15T02:14:19;177.90;;;81.03;;
67508;SDS011;54354;44.724;11.284;2024-01-15T02:16:44;160.55;;;80.28;;
67508;SDS011;54354;44.724;11.284;2024-01-15T02:19:16;168.98;;;82.97;;
67508;SDS011;54354;44.724;11.284;2024-01-15T02:21:43;157.57;;;80.85;;
67508;SDS011;54354;44.724;11.284;2024-01-15T02:24:09;153.05;;;80.57;;
67508;SDS011;54354;44.724;11.284;2024-01-15T02:26:35;154.35;;;80.55;;
67508;SDS011;54354;44.724;11.284;2024-01-15T02:29:02;166.70;;;85.97;;
67508;SDS011;54354;44.724;11.284;2024-01-15T02:31:27;171.30;;;86.82;;
67508;SDS011;54354;44.724;11.284;2024-01-15T02:33:53;162.18;;;85.88;;
67508;SDS011;54354;44.724;11.284;2024-01-15T02:36:18;156.90;;;82.68;;
67508;SDS011;54354;44.724;11.284;2024-01-15T02:38:44;159.60;;;83.18;;
67508;SDS011;54354;44.724;11.284;2024-01-15T02:41:09;158.48;;;84.45;;
67508;SDS011;54354;44.724;11.284;2024-01-15T02:43:35;153.57;;;80.13;;
67508;SDS011;54354;44.724;11.284;2024-01-15T02:46:00;153.40;;;81.78;;
67508;SDS011;54354;44.724;11.284;2024-01-15T02:48:26;149.35;;;80.38;;
67508;SDS011;54354;44.724;11.284;2024-01-15T02:50:51;154.85;;;81.82;;
67508;SDS011;54354;44.724;11.284;2024-01-15T02:53:17;156.60;;;82.40;;
67508;SDS011;54354;44.724;11.284;2024-01-15T02:55:42;163.63;;;84.53;;
67508;SDS011;54354;44.724;11.284;2024-01-15T02:58:08;152.10;;;80.68;;
67508;SDS011;54354;44.724;11.284;2024-01-15T03:03:09;155.90;;;84.47;;
67508;SDS011;54354;44.724;11.284;2024-01-15T03:05:35;155.88;;;80.55;;
67508;SDS011;54354;44.724;11.284;2024-01-15T03:08:00;148.98;;;80.43;;
67508;SDS011;54354;44.724;11.284;2024-01-15T03:10:26;146.82;;;77.00;;
67508;SDS011;54354;44.724;11.284;2024-01-15T03:12:51;158.82;;;84.55;;
67508;SDS011;54354;44.724;11.284;2024-01-15T03:15:17;146.00;;;79.60;;
67508;SDS011;54354;44.724;11.284;2024-01-15T03:17:43;147.57;;;78.20;;
67508;SDS011;54354;44.724;11.284;2024-01-15T03:20:09;153.50;;;80.95;;
67508;SDS011;54354;44.724;11.284;2024-01-15T03:22:35;161.65;;;84.18;;
67508;SDS011;54354;44.724;11.284;2024-01-15T03:25:01;154.25;;;82.05;;
67508;SDS011;54354;44.724;11.284;2024-01-15T03:27:27;161.00;;;87.70;;
67508;SDS011;54354;44.724;11.284;2024-01-15T03:29:52;159.80;;;85.97;;
67508;SDS011;54354;44.724;11.284;2024-01-15T03:32:18;157.32;;;82.47;;
67508;SDS011;54354;44.724;11.284;2024-01-15T03:34:44;150.82;;;82.45;;
67508;SDS011;54354;44.724;11.284;2024-01-15T03:37:11;139.48;;;77.70;;
67508;SDS011;54354;44.724;11.284;2024-01-15T03:39:36;150.18;;;81.15;;
67508;SDS011;54354;44.724;11.284;2024-01-15T03:42:02;138.85;;;80.30;;
67508;SDS011;54354;44.724;11.284;2024-01-15T03:44:28;130.02;;;76.22;;
67508;SDS011;54354;44.724;11.284;2024-01-15T03:46:53;136.52;;;77.50;;
67508;SDS011;54354;44.724;11.284;2024-01-15T03:49:19;130.55;;;77.70;;
67508;SDS011;54354;44.724;11.284;2024-01-15T03:51:44;123.88;;;76.18;;
67508;SDS011;54354;44.724;11.284;2024-01-15T03:54:10;124.13;;;73.95;;
67508;SDS011;54354;44.724;11.284;2024-01-15T03:56:35;127.05;;;74.95;;
67508;SDS011;54354;44.724;11.284;2024-01-15T03:59:01;121.97;;;76.38;;
67508;SDS011;54354;44.724;11.284;2024-01-15T04:01:26;114.75;;;71.63;;
67508;SDS011;54354;44.724;11.284;2024-01-15T04:03:51;118.43;;;73.25;;
67508;SDS011;54354;44.724;11.284;2024-01-15T04:06:17;114.60;;;72.00;;
67508;SDS011;54354;44.724;11.284;2024-01-15T04:08:42;117.55;;;72.10;;
67508;SDS011;54354;44.724;11.284;2024-01-15T04:11:08;117.03;;;71.65;;
67508;SDS011;54354;44.724;11.284;2024-01-15T04:13:33;118.05;;;72.35;;
67508;SDS011;54354;44.724;11.284;2024-01-15T04:15:59;114.47;;;72.88;;
67508;SDS011;54354;44.724;11.284;2024-01-15T04:18:25;113.03;;;73.72;;
67508;SDS011;54354;44.724;11.284;2024-01-15T04:20:51;116.55;;;73.82;;
67508;SDS011;54354;44.724;11.284;2024-01-15T04:23:16;124.25;;;75.97;;
67508;SDS011;54354;44.724;11.284;2024-01-15T04:25:42;114.85;;;72.72;;
67508;SDS011;54354;44.724;11.284;2024-01-15T04:28:08;118.65;;;73.10;;
67508;SDS011;54354;44.724;11.284;2024-01-15T04:30:34;120.45;;;74.35;;
67508;SDS011;54354;44.724;11.284;2024-01-15T04:32:59;113.95;;;71.93;;
67508;SDS011;54354;44.724;11.284;2024-01-15T04:35:25;117.65;;;72.97;;
67508;SDS011;54354;44.724;11.284;2024-01-15T04:37:50;115.22;;;69.80;;
67508;SDS011;54354;44.724;11.284;2024-01-15T04:40:16;116.93;;;73.53;;
67508;SDS011;54354;44.724;11.284;2024-01-15T04:42:41;114.32;;;70.75;;
67508;SDS011;54354;44.724;11.284;2024-01-15T04:45:07;110.82;;;69.63;;
67508;SDS011;54354;44.724;11.284;2024-01-15T04:47:33;112.30;;;70.38;;
67508;SDS011;54354;44.724;11.284;2024-01-15T04:49:58;105.47;;;67.93;;
67508;SDS011;54354;44.724;11.284;2024-01-15T04:52:24;102.85;;;66.75;;
67508;SDS011;54354;44.724;11.284;2024-01-15T04:54:49;106.57;;;68.03;;
67508;SDS011;54354;44.724;11.284;2024-01-15T04:57:15;101.65;;;66.97;;
67508;SDS011;54354;44.724;11.284;2024-01-15T04:59:40;109.18;;;68.22;;
67508;SDS011;54354;44.724;11.284;2024-01-15T05:02:06;108.18;;;68.10;;
67508;SDS011;54354;44.724;11.284;2024-01-15T05:04:32;104.78;;;67.60;;
67508;SDS011;54354;44.724;11.284;2024-01-15T05:06:58;108.00;;;69.45;;
67508;SDS011;54354;44.724;11.284;2024-01-15T05:09:23;105.93;;;67.50;;
67508;SDS011;54354;44.724;11.284;2024-01-15T05:11:49;103.90;;;67.80;;
67508;SDS011;54354;44.724;11.284;2024-01-15T05:14:14;106.22;;;68.18;;
67508;SDS011;54354;44.724;11.284;2024-01-15T05:16:44;109.22;;;71.25;;
67508;SDS011;54354;44.724;11.284;2024-01-15T05:19:12;101.78;;;66.65;;
67508;SDS011;54354;44.724;11.284;2024-01-15T05:21:37;108.47;;;69.38;;
67508;SDS011;54354;44.724;11.284;2024-01-15T05:24:03;102.85;;;67.18;;
67508;SDS011;54354;44.724;11.284;2024-01-15T05:26:28;110.88;;;70.25;;
67508;SDS011;54354;44.724;11.284;2024-01-15T05:28:54;111.22;;;72.05;;
67508;SDS011;54354;44.724;11.284;2024-01-15T05:31:19;106.93;;;68.47;;
67508;SDS011;54354;44.724;11.284;2024-01-15T05:33:45;111.57;;;70.63;;
67508;SDS011;54354;44.724;11.284;2024-01-15T05:36:10;109.97;;;71.78;;
67508;SDS011;54354;44.724;11.284;2024-01-15T05:38:36;113.30;;;70.82;;
67508;SDS011;54354;44.724;11.284;2024-01-15T05:41:01;110.05;;;70.70;;
67508;SDS011;54354;44.724;11.284;2024-01-15T05:43:27;106.07;;;69.05;;
67508;SDS011;54354;44.724;11.284;2024-01-15T05:45:53;107.68;;;68.57;;
67508;SDS011;54354;44.724;11.284;2024-01-15T05:48:18;108.45;;;68.47;;
67508;SDS011;54354;44.724;11.284;2024-01-15T05:50:44;105.72;;;69.97;;
67508;SDS011;54354;44.724;11.284;2024-01-15T05:53:09;113.80;;;72.57;;
67508;SDS011;54354;44.724;11.284;2024-01-15T05:55:35;112.75;;;71.72;;
67508;SDS011;54354;44.724;11.284;2024-01-15T05:58:02;109.75;;;71.75;;
67508;SDS011;54354;44.724;11.284;2024-01-15T06:00:28;116.93;;;73.20;;
67508;SDS011;54354;44.724;11.284;2024-01-15T06:02:54;112.57;;;72.10;;
67508;SDS011;54354;44.724;11.284;2024-01-15T06:05:20;118.68;;;74.75;;
67508;SDS011;54354;44.724;11.284;2024-01-15T06:07:45;123.03;;;75.03;;
67508;SDS011;54354;44.724;11.284;2024-01-15T06:10:11;127.38;;;76.22;;
67508;SDS011;54354;44.724;11.284;2024-01-15T06:12:36;120.90;;;75.78;;
67508;SDS011;54354;44.724;11.284;2024-01-15T06:15:02;121.10;;;74.63;;
67508;SDS011;54354;44.724;11.284;2024-01-15T06:17:27;125.45;;;75.72;;
67508;SDS011;54354;44.724;11.284;2024-01-15T06:19:53;130.90;;;80.28;;
67508;SDS011;54354;44.724;11.284;2024-01-15T06:22:18;126.38;;;78.20;;
67508;SDS011;54354;44.724;11.284;2024-01-15T06:24:44;121.15;;;76.28;;
67508;SDS011;54354;44.724;11.284;2024-01-15T06:27:09;124.28;;;76.57;;
67508;SDS011;54354;44.724;11.284;2024-01-15T06:29:37;124.20;;;76.75;;
67508;SDS011;54354;44.724;11.284;2024-01-15T06:32:03;122.78;;;74.65;;
67508;SDS011;54354;44.724;11.284;2024-01-15T06:34:29;127.10;;;76.13;;
67508;SDS011;54354;44.724;11.284;2024-01-15T06:36:55;131.68;;;78.28;;
67508;SDS011;54354;44.724;11.284;2024-01-15T06:39:20;127.95;;;76.40;;
67508;SDS011;54354;44.724;11.284;2024-01-15T06:41:46;131.63;;;77.00;;
67508;SDS011;54354;44.724;11.284;2024-01-15T06:44:12;132.55;;;78.63;;
67508;SDS011;54354;44.724;11.284;2024-01-15T06:46:47;130.63;;;76.68;;
67508;SDS011;54354;44.724;11.284;2024-01-15T06:49:12;131.07;;;75.95;;
67508;SDS011;54354;44.724;11.284;2024-01-15T06:51:38;135.77;;;77.35;;
67508;SDS011;54354;44.724;11.284;2024-01-15T06:54:04;139.70;;;81.93;;
67508;SDS011;54354;44.724;11.284;2024-01-15T06:56:29;126.20;;;77.95;;
67508;SDS011;54354;44.724;11.284;2024-01-15T06:58:56;124.20;;;74.93;;
67508;SDS011;54354;44.724;11.284;2024-01-15T07:01:21;129.90;;;77.03;;
67508;SDS011;54354;44.724;11.284;2024-01-15T07:03:47;128.25;;;77.57;;
67508;SDS011;54354;44.724;11.284;2024-01-15T07:06:12;127.43;;;77.07;;
67508;SDS011;54354;44.724;11.284;2024-01-15T07:08:39;126.78;;;76.90;;
67508;SDS011;54354;44.724;11.284;2024-01-15T07:11:05;131.05;;;78.68;;
67508;SDS011;54354;44.724;11.284;2024-01-15T07:13:31;118.78;;;75.28;;
67508;SDS011;54354;44.724;11.284;2024-01-15T07:15:57;118.57;;;74.95;;
67508;SDS011;54354;44.724;11.284;2024-01-15T07:18:23;114.30;;;71.90;;
67508;SDS011;54354;44.724;11.284;2024-01-15T07:20:48;116.88;;;73.75;;
67508;SDS011;54354;44.724;11.284;2024-01-15T07:23:14;114.82;;;74.18;;
67508;SDS011;54354;44.724;11.284;2024-01-15T07:25:40;110.40;;;71.97;;
67508;SDS011;54354;44.724;11.284;2024-01-15T07:28:05;115.00;;;69.70;;
67508;SDS011;54354;44.724;11.284;2024-01-15T07:30:31;118.00;;;73.60;;
67508;SDS011;54354;44.724;11.284;2024-01-15T07:32:56;119.50;;;76.35;;
67508;SDS011;54354;44.724;11.284;2024-01-15T07:35:22;119.88;;;73.90;;
67508;SDS011;54354;44.724;11.284;2024-01-15T07:37:47;112.88;;;71.95;;
67508;SDS011;54354;44.724;11.284;2024-01-15T07:40:13;112.22;;;74.57;;
67508;SDS011;54354;44.724;11.284;2024-01-15T07:42:38;112.32;;;72.68;;
67508;SDS011;54354;44.724;11.284;2024-01-15T07:45:04;110.70;;;73.63;;
67508;SDS011;54354;44.724;11.284;2024-01-15T07:47:31;110.70;;;71.32;;
67508;SDS011;54354;44.724;11.284;2024-01-15T07:49:57;110.63;;;72.82;;
67508;SDS011;54354;44.724;11.284;2024-01-15T07:52:22;104.57;;;68.75;;
67508;SDS011;54354;44.724;11.284;2024-01-15T07:54:48;103.82;;;70.00;;
67508;SDS011;54354;44.724;11.284;2024-01-15T07:57:13;103.63;;;70.68;;
67508;SDS011;54354;44.724;11.284;2024-01-15T07:59:39;111.82;;;72.10;;
67508;SDS011;54354;44.724;11.284;2024-01-15T08:02:05;106.47;;;72.43;;
67508;SDS011;54354;44.724;11.284;2024-01-15T08:04:31;108.72;;;73.15;;
67508;SDS011;54354;44.724;11.284;2024-01-15T08:06:56;104.57;;;69.80;;
67508;SDS011;54354;44.724;11.284;2024-01-15T08:09:22;106.10;;;70.80;;
67508;SDS011;54354;44.724;11.284;2024-01-15T08:11:48;108.00;;;70.60;;
67508;SDS011;54354;44.724;11.284;2024-01-15T08:14:14;105.35;;;69.45;;
67508;SDS011;54354;44.724;11.284;2024-01-15T08:16:40;105.25;;;70.13;;
67508;SDS011;54354;44.724;11.284;2024-01-15T08:19:06;107.97;;;72.00;;
67508;SDS011;54354;44.724;11.284;2024-01-15T08:21:32;107.75;;;71.65;;
67508;SDS011;54354;44.724;11.284;2024-01-15T08:23:58;111.82;;;71.88;;
67508;SDS011;54354;44.724;11.284;2024-01-15T08:26:27;110.13;;;70.85;;
67508;SDS011;54354;44.724;11.284;2024-01-15T08:28:53;108.40;;;72.55;;
67508;SDS011;54354;44.724;11.284;2024-01-15T08:31:19;110.70;;;73.00;;
67508;SDS011;54354;44.724;11.284;2024-01-15T08:33:44;112.75;;;72.97;;
67508;SDS011;54354;44.724;11.284;2024-01-15T08:36:11;106.68;;;71.25;;
67508;SDS011;54354;44.724;11.284;2024-01-15T08:38:37;109.30;;;72.35;;
67508;SDS011;54354;44.724;11.284;2024-01-15T08:41:02;111.28;;;73.07;;
67508;SDS011;54354;44.724;11.284;2024-01-15T08:43:28;115.30;;;72.93;;
67508;SDS011;54354;44.724;11.284;2024-01-15T08:45:55;119.60;;;74.97;;
67508;SDS011;54354;44.724;11.284;2024-01-15T08:48:20;112.78;;;71.40;;
67508;SDS011;54354;44.724;11.284;2024-01-15T08:50:46;112.85;;;72.15;;
67508;SDS011;54354;44.724;11.284;2024-01-15T08:53:11;119.10;;;75.13;;
67508;SDS011;54354;44.724;11.284;2024-01-15T08:55:37;116.35;;;74.63;;
67508;SDS011;54354;44.724;11.284;2024-01-15T08:58:03;119.03;;;73.30;;
67508;SDS011;54354;44.724;11.284;2024-01-15T09:00:29;111.32;;;72.85;;
67508;SDS011;54354;44.724;11.284;2024-01-15T09:02:55;118.40;;;75.38;;
67508;SDS011;54354;44.724;11.284;2024-01-15T09:05:21;120.00;;;76.57;;
67508;SDS011;54354;44.724;11.284;2024-01-15T09:07:47;123.88;;;77.35;;
67508;SDS011;54354;44.724;11.284;2024-01-15T09:10:13;125.25;;;76.43;;
67508;SDS011;54354;44.724;11.284;2024-01-15T09:12:39;125.55;;;78.22;;
67508;SDS011;54354;44.724;11.284;2024-01-15T09:15:05;132.30;;;78.97;;
67508;SDS011;54354;44.724;11.284;2024-01-15T09:17:31;134.93;;;82.63;;
67508;SDS011;54354;44.724;11.284;2024-01-15T09:19:57;135.50;;;80.85;;
67508;SDS011;54354;44.724;11.284;2024-01-15T09:22:23;133.85;;;79.60;;
67508;SDS011;54354;44.724;11.284;2024-01-15T09:24:48;132.30;;;79.28;;
67508;SDS011;54354;44.724;11.284;2024-01-15T09:27:14;137.82;;;82.63;;
67508;SDS011;54354;44.724;11.284;2024-01-15T09:29:40;132.60;;;79.25;;
67508;SDS011;54354;44.724;11.284;2024-01-15T09:32:08;133.75;;;81.95;;
67508;SDS011;54354;44.724;11.284;2024-01-15T09:34:34;145.40;;;84.68;;
67508;SDS011;54354;44.724;11.284;2024-01-15T09:37:00;136.35;;;82.53;;
67508;SDS011;54354;44.724;11.284;2024-01-15T09:39:26;132.85;;;79.65;;
67508;SDS011;54354;44.724;11.284;2024-01-15T09:41:52;133.82;;;78.72;;
67508;SDS011;54354;44.724;11.284;2024-01-15T09:44:19;137.43;;;79.32;;
67508;SDS011;54354;44.724;11.284;2024-01-15T09:46:45;144.30;;;83.85;;
67508;SDS011;54354;44.724;11.284;2024-01-15T09:49:11;139.68;;;83.10;;
67508;SDS011;54354;44.724;11.284;2024-01-15T09:51:37;143.98;;;85.47;;
67508;SDS011;54354;44.724;11.284;2024-01-15T09:54:04;141.68;;;84.90;;
67508;SDS011;54354;44.724;11.284;2024-01-15T09:56:30;139.68;;;86.47;;
67508;SDS011;54354;44.724;11.284;2024-01-15T09:58:57;136.48;;;81.70;;
67508;SDS011;54354;44.724;11.284;2024-01-15T10:01:23;131.30;;;79.90;;
67508;SDS011;54354;44.724;11.284;2024-01-15T10:03:50;133.93;;;80.82;;
67508;SDS011;54354;44.724;11.284;2024-01-15T10:06:16;132.43;;;81.20;;
67508;SDS011;54354;44.724;11.284;2024-01-15T10:08:43;127.97;;;80.22;;
67508;SDS011;54354;44.724;11.284;2024-01-15T10:11:13;124.03;;;76.97;;
67508;SDS011;54354;44.724;11.284;2024-01-15T10:13:39;126.45;;;77.68;;
67508;SDS011;54354;44.724;11.284;2024-01-15T10:16:05;122.68;;;75.70;;
67508;SDS011;54354;44.724;11.284;2024-01-15T10:18:32;114.57;;;74.70;;
67508;SDS011;54354;44.724;11.284;2024-01-15T10:20:58;112.32;;;72.72;;
67508;SDS011;54354;44.724;11.284;2024-01-15T10:23:24;106.60;;;71.72;;
67508;SDS011;54354;44.724;11.284;2024-01-15T10:25:49;100.78;;;69.15;;
67508;SDS011;54354;44.724;11.284;2024-01-15T10:28:16;98.78;;;68.63;;
67508;SDS011;54354;44.724;11.284;2024-01-15T10:30:44;97.32;;;68.05;;
67508;SDS011;54354;44.724;11.284;2024-01-15T10:33:10;102.05;;;70.35;;
67508;SDS011;54354;44.724;11.284;2024-01-15T10:35:37;99.03;;;65.03;;
67508;SDS011;54354;44.724;11.284;2024-01-15T10:38:03;94.55;;;65.15;;
67508;SDS011;54354;44.724;11.284;2024-01-15T10:40:30;97.60;;;67.78;;
67508;SDS011;54354;44.724;11.284;2024-01-15T10:45:45;98.43;;;66.80;;
67508;SDS011;54354;44.724;11.284;2024-01-15T10:48:16;101.95;;;72.00;;
67508;SDS011;54354;44.724;11.284;2024-01-15T10:50:44;111.60;;;75.20;;
67508;SDS011;54354;44.724;11.284;2024-01-15T10:53:14;102.25;;;69.32;;
67508;SDS011;54354;44.724;11.284;2024-01-15T10:58:07;100.50;;;69.57;;
67508;SDS011;54354;44.724;11.284;2024-01-15T11:00:33;96.32;;;68.13;;
67508;SDS011;54354;44.724;11.284;2024-01-15T11:03:01;98.63;;;68.45;;
67508;SDS011;54354;44.724;11.284;2024-01-15T11:05:28;99.20;;;67.75;;
67508;SDS011;54354;44.724;11.284;2024-01-15T11:07:56;93.50;;;64.43;;
67508;SDS011;54354;44.724;11.284;2024-01-15T11:10:39;90.22;;;65.13;;
67508;SDS011;54354;44.724;11.284;2024-01-15T11:13:08;89.28;;;62.97;;
67508;SDS011;54354;44.724;11.284;2024-01-15T11:15:54;91.07;;;65.05;;
67508;SDS011;54354;44.724;11.284;2024-01-15T11:18:40;90.13;;;65.43;;
67508;SDS011;54354;44.724;11.284;2024-01-15T11:23:46;92.53;;;64.57;;
67508;SDS011;54354;44.724;11.284;2024-01-15T11:31:56;94.10;;;65.80;;
67508;SDS011;54354;44.724;11.284;2024-01-15T11:34:49;99.35;;;67.55;;
67508;SDS011;54354;44.724;11.284;2024-01-15T11:37:18;96.68;;;67.80;;
67508;SDS011;54354;44.724;11.284;2024-01-15T11:39:44;93.88;;;66.65;;
67508;SDS011;54354;44.724;11.284;2024-01-15T11:42:12;91.15;;;63.65;;
67508;SDS011;54354;44.724;11.284;2024-01-15T11:44:38;95.65;;;65.65;;
67508;SDS011;54354;44.724;11.284;2024-01-15T11:47:05;93.72;;;65.07;;
67508;SDS011;54354;44.724;11.284;2024-01-15T11:52:34;95.30;;;66.75;;
67508;SDS011;54354;44.724;11.284;2024-01-15T12:00:05;87.55;;;63.85;;
67508;SDS011;54354;44.724;11.284;2024-01-15T12:02:39;83.75;;;60.25;;
67508;SDS011;54354;44.724;11.284;2024-01-15T12:05:09;84.72;;;61.40;;
67508;SDS011;54354;44.724;11.284;2024-01-15T12:07:40;87.18;;;60.70;;
67508;SDS011;54354;44.724;11.284;2024-01-15T12:10:11;87.63;;;62.80;;
67508;SDS011;54354;44.724;11.284;2024-01-15T12:15:28;86.55;;;63.13;;
67508;SDS011;54354;44.724;11.284;2024-01-15T12:17:55;91.40;;;63.50;;
67508;SDS011;54354;44.724;11.284;2024-01-15T12:20:25;90.75;;;64.22;;
67508;SDS011;54354;44.724;11.284;2024-01-15T12:22:51;85.28;;;62.28;;
67508;SDS011;54354;44.724;11.284;2024-01-15T12:25:17;90.22;;;62.00;;
67508;SDS011;54354;44.724;11.284;2024-01-15T12:27:42;83.75;;;59.38;;
67508;SDS011;54354;44.724;11.284;2024-01-15T12:30:12;88.80;;;62.40;;
67508;SDS011;54354;44.724;11.284;2024-01-15T12:32:42;85.30;;;61.60;;
67508;SDS011;54354;44.724;11.284;2024-01-15T12:35:09;85.17;;;60.30;;
67508;SDS011;54354;44.724;11.284;2024-01-15T12:37:36;84.40;;;59.25;;
67508;SDS011;54354;44.724;11.284;2024-01-15T12:40:03;82.00;;;59.70;;
67508;SDS011;54354;44.724;11.284;2024-01-15T12:42:32;84.88;;;60.47;;
67508;SDS011;54354;44.724;11.284;2024-01-15T12:45:00;81.05;;;59.33;;
67508;SDS011;54354;44.724;11.284;2024-01-15T12:47:26;83.90;;;60.67;;
67508;SDS011;54354;44.724;11.284;2024-01-15T12:49:52;81.25;;;57.47;;
67508;SDS011;54354;44.724;11.284;2024-01-15T12:52:21;84.40;;;58.47;;
67508;SDS011;54354;44.724;11.284;2024-01-15T12:54:47;80.65;;;56.42;;
67508;SDS011;54354;44.724;11.284;2024-01-15T12:57:15;79.13;;;56.80;;
67508;SDS011;54354;44.724;11.284;2024-01-15T12:59:41;72.90;;;55.60;;
67508;SDS011;54354;44.724;11.284;2024-01-15T13:02:06;76.90;;;54.55;;
67508;SDS011;54354;44.724;11.284;2024-01-15T13:04:32;76.35;;;56.35;;
67508;SDS011;54354;44.724;11.284;2024-01-15T13:06:58;74.80;;;54.03;;
67508;SDS011;54354;44.724;11.284;2024-01-15T13:09:24;71.50;;;53.10;;
67508;SDS011;54354;44.724;11.284;2024-01-15T13:11:50;81.10;;;56.95;;
67508;SDS011;54354;44.724;11.284;2024-01-15T13:14:17;78.30;;;56.53;;
67508;SDS011;54354;44.724;11.284;2024-01-15T13:16:43;77.00;;;57.20;;
67508;SDS011;54354;44.724;11.284;2024-01-15T13:19:09;73.00;;;54.95;;
67508;SDS011;54354;44.724;11.284;2024-01-15T13:21:37;68.35;;;52.30;;
67508;SDS011;54354;44.724;11.284;2024-01-15T13:24:03;67.80;;;52.33;;
67508;SDS011;54354;44.724;11.284;2024-01-15T13:26:31;71.90;;;52.38;;
67508;SDS011;54354;44.724;11.284;2024-01-15T13:28:59;72.90;;;50.45;;
67508;SDS011;54354;44.724;11.284;2024-01-15T13:31:29;69.13;;;51.35;;
67508;SDS011;54354;44.724;11.284;2024-01-15T13:33:58;66.53;;;49.53;;
67508;SDS011;54354;44.724;11.284;2024-01-15T13:36:25;66.90;;;50.00;;
67508;SDS011;54354;44.724;11.284;2024-01-15T13:38:52;69.07;;;52.03;;
67508;SDS011;54354;44.724;11.284;2024-01-15T13:41:21;63.38;;;48.15;;
67508;SDS011;54354;44.724;11.284;2024-01-15T13:43:52;62.55;;;48.63;;
67508;SDS011;54354;44.724;11.284;2024-01-15T13:46:23;65.22;;;47.45;;
67508;SDS011;54354;44.724;11.284;2024-01-15T13:48:52;62.17;;;48.33;;
67508;SDS011;54354;44.724;11.284;2024-01-15T13:51:18;59.72;;;48.20;;
67508;SDS011;54354;44.724;11.284;2024-01-15T13:53:47;63.08;;;48.03;;
67508;SDS011;54354;44.724;11.284;2024-01-15T13:56:13;68.43;;;51.13;;
67508;SDS011;54354;44.724;11.284;2024-01-15T13:58:39;65.80;;;50.17;;
67508;SDS011;54354;44.724;11.284;2024-01-15T14:01:04;61.65;;;48.58;;
67508;SDS011;54354;44.724;11.284;2024-01-15T14:03:31;65.55;;;48.58;;
67508;SDS011;54354;44.724;11.284;2024-01-15T14:05:57;62.60;;;47.28;;
67508;SDS011;54354;44.724;11.284;2024-01-15T14:08:23;62.28;;;47.25;;
67508;SDS011;54354;44.724;11.284;2024-01-15T14:10:49;60.97;;;47.55;;
67508;SDS011;54354;44.724;11.284;2024-01-15T14:13:15;60.88;;;46.20;;
67508;SDS011;54354;44.724;11.284;2024-01-15T14:15:40;64.75;;;50.13;;
67508;SDS011;54354;44.724;11.284;2024-01-15T14:18:06;64.25;;;48.95;;
67508;SDS011;54354;44.724;11.284;2024-01-15T14:20:31;63.33;;;47.55;;